Time;durP1;ratioP1;P1;durP2;ratioP2;P2;SDS_P1;SDS_P2;PMS_P1;PMS_P2;Temp;Humidity;BMP_temperature;BMP_pressure;BME280_temperature;BME280_humidity;BME280_pressure;Samples;Min_cycle;Max_cycle;Signal;HPM_P1;HPM_P2
2022/08/28 00:01:50;;;;;;;6.25;5.10;;;17.40;17.50;;;;;;5148555;27;34386;-75
2022/08/28 00:04:16;;;;;;;7.07;4.95;;;17.40;17.70;;;;;;5132208;27;34325;-74
2022/08/28 00:06:42;;;;;;;7.88;5.50;;;17.40;17.70;;;;;;5149919;27;34320;-75
2022/08/28 00:09:08;;;;;;;7.00;5.07;;;17.40;17.80;;;;;;5149897;27;34175;-74
2022/08/28 00:11:36;;;;;;;8.93;4.78;;;17.40;17.70;;;;;;5168298;27;34466;-74
2022/08/28 00:14:05;;;;;;;7.57;5.20;;;17.40;17.70;;;;;;5149350;27;34462;-74
2022/08/28 00:16:32;;;;;;;10.77;5.47;;;17.50;17.70;;;;;;5167744;27;34251;-74
2022/08/28 00:19:00;;;;;;;6.22;4.93;;;17.40;17.60;;;;;;5167928;27;34930;-74
2022/08/28 00:21:26;;;;;;;9.10;5.10;;;17.50;17.60;;;;;;5148995;27;34244;-74
2022/08/28 00:23:52;;;;;;;7.82;5.38;;;17.50;17.80;;;;;;5149537;27;34439;-74
2022/08/28 00:28:59;;;;;;;9.48;5.32;;;17.50;17.80;;;;;;5167140;27;34068;-74
2022/08/28 00:31:25;;;;;;;7.10;4.70;;;17.50;17.90;;;;;;5164149;27;33979;-75
2022/08/28 00:33:51;;;;;;;7.28;5.25;;;17.50;18.30;;;;;;5162172;27;34257;-74
2022/08/28 00:36:18;;;;;;;7.45;5.25;;;17.50;17.70;;;;;;5167965;27;34011;-75
2022/08/28 00:38:44;;;;;;;7.90;5.18;;;17.50;17.80;;;;;;5167531;27;34015;-75
2022/08/28 00:41:11;;;;;;;8.05;5.07;;;17.40;17.90;;;;;;5148759;27;34385;-74
2022/08/28 00:43:41;;;;;;;7.43;4.95;;;17.40;17.80;;;;;;5131620;27;34360;-74
2022/08/28 00:46:11;;;;;;;7.63;4.90;;;17.40;18.00;;;;;;5131222;27;34277;-75
2022/08/28 00:48:38;;;;;;;9.35;4.70;;;17.40;18.10;;;;;;5167057;27;34746;-75
2022/08/28 00:53:46;;;;;;;7.72;4.72;;;17.40;18.10;;;;;;5150309;27;34249;-74
2022/08/28 00:56:15;;;;;;;6.97;4.47;;;17.30;18.20;;;;;;5149094;27;34431;-75
2022/08/28 00:58:44;;;;;;;7.30;4.85;;;17.30;18.30;;;;;;5148483;27;35491;-74
2022/08/28 01:01:11;;;;;;;12.05;5.43;;;17.30;18.30;;;;;;5148508;27;34262;-74
2022/08/28 01:03:38;;;;;;;7.03;5.10;;;17.20;18.30;;;;;;5131999;27;34210;-74
2022/08/28 01:06:04;;;;;;;7.95;4.82;;;17.20;18.40;;;;;;5148688;27;34526;-74
2022/08/28 01:08:31;;;;;;;8.25;5.15;;;17.10;18.20;;;;;;5148320;27;35604;-74
2022/08/28 01:11:00;;;;;;;8.40;4.78;;;17.10;18.40;;;;;;5149353;27;34021;-74
2022/08/28 01:13:27;;;;;;;6.45;4.63;;;17.10;18.50;;;;;;5148195;27;34163;-75
2022/08/28 01:15:54;;;;;;;6.28;4.38;;;17.20;18.60;;;;;;5167378;27;34081;-74
2022/08/28 01:18:20;;;;;;;11.70;5.32;;;17.10;18.60;;;;;;5148002;27;35944;-74
2022/08/28 01:20:57;;;;;;;7.30;4.93;;;17.10;18.50;;;;;;5166555;27;34154;-74
2022/08/28 01:23:46;;;;;;;5.57;4.57;;;17.10;18.90;;;;;;5147775;27;34285;-74
2022/08/28 01:26:12;;;;;;;7.10;4.30;;;17.10;20.00;;;;;;5154646;27;34296;-74
2022/08/28 01:28:39;;;;;;;6.80;4.97;;;17.10;18.70;;;;;;5159850;27;34305;-75
2022/08/28 01:31:09;;;;;;;6.13;4.78;;;17.00;18.70;;;;;;5147860;27;34307;-74
2022/08/28 01:33:36;;;;;;;8.13;4.95;;;17.00;18.90;;;;;;5166558;27;34162;-74
2022/08/28 01:36:03;;;;;;;5.88;4.57;;;17.00;18.80;;;;;;5166701;27;34271;-74
2022/08/28 01:38:29;;;;;;;5.63;4.68;;;17.00;18.70;;;;;;5148133;27;35934;-74
2022/08/28 01:40:56;;;;;;;7.15;4.78;;;16.90;18.70;;;;;;5148325;27;34214;-74
2022/08/28 01:43:25;;;;;;;7.95;5.25;;;16.90;18.90;;;;;;5147560;27;34514;-75
2022/08/28 01:45:55;;;;;;;8.15;4.97;;;16.90;18.90;;;;;;5131560;27;34255;-74
2022/08/28 01:48:24;;;;;;;6.82;4.82;;;16.90;19.00;;;;;;5148029;27;34171;-74
2022/08/28 01:50:51;;;;;;;7.35;4.88;;;16.90;19.00;;;;;;5147737;27;34252;-74
2022/08/28 01:53:22;;;;;;;7.85;4.88;;;16.80;18.90;;;;;;5147421;27;34158;-74
2022/08/28 01:55:49;;;;;;;8.05;4.55;;;16.80;18.90;;;;;;5147712;27;34248;-74
2022/08/28 01:58:15;;;;;;;7.45;4.75;;;16.80;19.00;;;;;;5147692;27;35521;-74
2022/08/28 02:00:42;;;;;;;7.93;4.55;;;16.70;19.00;;;;;;5166317;27;34088;-74
2022/08/28 02:03:08;;;;;;;5.30;4.28;;;16.70;19.10;;;;;;5147829;27;34470;-75
2022/08/28 02:05:35;;;;;;;6.72;4.68;;;16.60;19.00;;;;;;5147873;27;34163;-75
2022/08/28 02:08:03;;;;;;;6.55;4.65;;;16.60;19.10;;;;;;5147328;27;35930;-75
2022/08/28 02:10:32;;;;;;;6.13;4.28;;;16.50;19.30;;;;;;5130610;27;34121;-74
2022/08/28 02:12:59;;;;;;;5.85;4.32;;;16.50;19.30;;;;;;5166452;27;34368;-74
2022/08/28 02:15:27;;;;;;;5.68;4.10;;;16.50;19.40;;;;;;5144654;27;34111;-74
2022/08/28 02:17:54;;;;;;;6.72;4.85;;;16.40;19.40;;;;;;5142838;27;35192;-75
2022/08/28 02:20:20;;;;;;;6.95;4.57;;;16.40;19.40;;;;;;5127906;27;34095;-75
2022/08/28 02:22:47;;;;;;;6.05;4.35;;;16.40;19.20;;;;;;5141485;27;34218;-74
2022/08/28 02:25:13;;;;;;;5.32;4.03;;;16.30;19.50;;;;;;5148168;27;34521;-74
2022/08/28 02:27:40;;;;;;;6.88;4.43;;;16.30;19.40;;;;;;5132043;27;36702;-74
2022/08/28 02:30:08;;;;;;;6.07;4.22;;;16.30;19.50;;;;;;5126979;27;34118;-75
2022/08/28 02:32:34;;;;;;;5.28;3.95;;;16.20;19.40;;;;;;5126346;27;34216;-75
2022/08/28 02:35:01;;;;;;;4.70;3.70;;;16.30;19.50;;;;;;5151625;27;34098;-74
2022/08/28 02:37:27;;;;;;;6.07;3.85;;;16.20;19.40;;;;;;5150513;27;36448;-74
2022/08/28 02:39:55;;;;;;;5.90;3.80;;;16.20;19.30;;;;;;5151308;27;34478;-74
2022/08/28 02:42:21;;;;;;;6.43;3.85;;;16.20;19.20;;;;;;5133390;27;34334;-74
2022/08/28 02:44:47;;;;;;;5.82;3.58;;;16.10;19.50;;;;;;5151024;27;34092;-74
2022/08/28 02:47:14;;;;;;;5.47;3.67;;;16.10;19.50;;;;;;5133537;27;36078;-74
2022/08/28 02:49:41;;;;;;;6.63;3.67;;;16.10;19.50;;;;;;5169656;27;34161;-74
2022/08/28 02:54:52;;;;;;;6.05;3.75;;;16.00;20.00;;;;;;5129125;27;34107;-74
2022/08/28 02:57:18;;;;;;;4.88;3.63;;;15.90;19.50;;;;;;5116920;27;35628;-74
2022/08/28 02:59:46;;;;;;;5.95;3.38;;;15.80;19.50;;;;;;5129953;27;34095;-74
2022/08/28 03:02:12;;;;;;;4.32;3.38;;;15.80;19.30;;;;;;5129685;27;34100;-74
2022/08/28 03:04:39;;;;;;;4.18;3.25;;;15.80;19.30;;;;;;5129495;27;34509;-74
2022/08/28 03:07:08;;;;;;;4.68;3.17;;;15.70;19.50;;;;;;5125409;27;35996;-75
2022/08/28 03:09:34;;;;;;;5.15;3.40;;;15.70;19.60;;;;;;5109085;27;34223;-74
2022/08/28 03:12:00;;;;;;;10.18;3.78;;;15.60;19.50;;;;;;5095481;27;34150;-74
2022/08/28 03:14:26;;;;;;;4.55;3.33;;;15.50;19.60;;;;;;5091245;28;34307;-74
2022/08/28 03:16:52;;;;;;;4.50;3.50;;;15.50;19.60;;;;;;5088974;27;35886;-74
2022/08/28 03:19:18;;;;;;;3.97;3.33;;;15.50;19.70;;;;;;5110745;27;34330;-74
2022/08/28 03:21:44;;;;;;;5.05;3.40;;;15.40;19.80;;;;;;5142121;27;34090;-74
2022/08/28 03:24:10;;;;;;;4.35;3.47;;;15.40;19.80;;;;;;5119982;27;34141;-74
2022/08/28 03:26:36;;;;;;;6.63;3.50;;;15.40;19.60;;;;;;5091701;27;35770;-74
2022/08/28 03:29:02;;;;;;;5.63;3.08;;;15.30;19.90;;;;;;5108629;27;34288;-74
2022/08/28 03:31:32;;;;;;;4.28;3.05;;;15.30;19.90;;;;;;5127314;27;34269;-74
2022/08/28 03:33:59;;;;;;;6.65;3.78;;;15.30;19.80;;;;;;5109016;27;34008;-74
2022/08/28 03:36:27;;;;;;;4.50;3.13;;;15.30;19.90;;;;;;5125147;27;34450;-74
2022/08/28 03:38:55;;;;;;;4.63;3.40;;;15.20;19.90;;;;;;5075079;27;34293;-75
2022/08/28 03:41:23;;;;;;;5.28;3.47;;;15.20;19.80;;;;;;5091675;27;34395;-74
2022/08/28 03:43:50;;;;;;;4.00;3.00;;;15.10;19.90;;;;;;5108938;27;34016;-74
2022/08/28 03:46:19;;;;;;;4.35;3.20;;;15.10;20.40;;;;;;5126442;27;35316;-74
2022/08/28 03:48:45;;;;;;;4.68;3.47;;;15.10;20.00;;;;;;5109150;27;34161;-74
2022/08/28 03:51:17;;;;;;;3.63;2.92;;;15.00;19.80;;;;;;5126394;27;34059;-74
2022/08/28 03:53:43;;;;;;;7.35;3.50;;;15.00;20.60;;;;;;5093971;28;35225;-74
2022/08/28 03:56:12;;;;;;;4.50;3.60;;;15.00;20.00;;;;;;5105135;27;35802;-74
2022/08/28 03:58:39;;;;;;;3.70;3.30;;;15.00;20.10;;;;;;5126571;27;33770;-74
2022/08/28 04:01:06;;;;;;;5.22;3.58;;;15.00;20.10;;;;;;5138402;27;34391;-75
2022/08/28 04:03:32;;;;;;;4.60;3.40;;;15.00;20.00;;;;;;5147442;27;34121;-75
2022/08/28 04:05:59;;;;;;;4.82;3.60;;;15.00;19.90;;;;;;5111836;27;35575;-75
2022/08/28 04:08:26;;;;;;;4.10;3.15;;;15.00;20.00;;;;;;5125686;27;34295;-74
2022/08/28 04:10:53;;;;;;;5.25;2.72;;;15.00;20.00;;;;;;5142218;27;34058;-75
2022/08/28 04:13:20;;;;;;;5.72;3.35;;;15.00;20.30;;;;;;5110030;27;34198;-74
2022/08/28 04:15:59;;;;;;;4.45;3.45;;;15.00;20.30;;;;;;5122526;27;36589;-75
2022/08/28 04:18:27;;;;;;;4.55;3.13;;;15.00;21.10;;;;;;5109095;27;34125;-75
2022/08/28 04:21:11;;;;;;;4.32;3.22;;;15.00;20.30;;;;;;5141935;27;34132;-76
2022/08/28 04:23:38;;;;;;;3.60;3.28;;;15.00;21.90;;;;;;5128573;27;34084;-74
2022/08/28 04:26:06;;;;;;;3.95;2.97;;;15.00;20.40;;;;;;5141417;27;35602;-75
2022/08/28 04:28:33;;;;;;;7.60;3.55;;;15.00;20.50;;;;;;5087495;28;34316;-75
2022/08/28 04:30:59;;;;;;;4.43;3.25;;;15.00;20.60;;;;;;5088009;28;34208;-75
2022/08/28 04:33:27;;;;;;;3.53;2.85;;;15.00;20.50;;;;;;5109205;27;34554;-74
2022/08/28 04:35:54;;;;;;;4.25;3.08;;;14.90;20.10;;;;;;5123040;27;36254;-74
2022/08/28 04:38:20;;;;;;;4.80;3.38;;;14.90;20.70;;;;;;5123081;27;34163;-75
2022/08/28 04:40:47;;;;;;;5.78;3.25;;;14.90;20.70;;;;;;5125953;27;34251;-74
2022/08/28 04:43:13;;;;;;;3.60;3.05;;;14.90;20.70;;;;;;5107096;27;34056;-74
2022/08/28 04:45:42;;;;;;;4.05;3.40;;;14.90;20.70;;;;;;5107587;27;35692;-74
2022/08/28 04:48:11;;;;;;;4.18;3.42;;;14.90;20.70;;;;;;5106743;27;34024;-74
2022/08/28 04:50:46;;;;;;;4.88;3.05;;;14.90;20.70;;;;;;5107564;27;34262;-74
2022/08/28 04:53:13;;;;;;;5.50;3.45;;;14.90;21.50;;;;;;5107046;27;34209;-74
2022/08/28 04:55:41;;;;;;;5.57;3.13;;;14.90;20.90;;;;;;5107274;27;35938;-75
2022/08/28 04:58:07;;;;;;;3.58;3.25;;;14.80;20.90;;;;;;5125207;27;34137;-75
2022/08/28 05:00:36;;;;;;;4.03;2.92;;;14.80;20.90;;;;;;5113052;27;34091;-74
2022/08/28 05:03:01;;;;;;;4.97;3.17;;;14.80;20.90;;;;;;5145860;27;34244;-74
2022/08/28 05:05:27;;;;;;;6.72;3.20;;;14.80;20.90;;;;;;5110390;27;35480;-75
2022/08/28 05:07:53;;;;;;;4.70;3.17;;;14.80;21.00;;;;;;5146471;27;34353;-74
2022/08/28 05:10:20;;;;;;;5.32;2.92;;;14.80;21.00;;;;;;5109728;27;34370;-74
2022/08/28 05:12:46;;;;;;;4.70;2.90;;;14.80;21.10;;;;;;5126703;27;34288;-75
2022/08/28 05:15:12;;;;;;;4.15;3.13;;;14.80;21.00;;;;;;5107031;27;34442;-75
2022/08/28 05:17:38;;;;;;;3.88;3.08;;;14.70;21.10;;;;;;5090399;27;34057;-74
2022/08/28 05:20:05;;;;;;;3.75;3.13;;;14.70;21.10;;;;;;5106959;27;34188;-75
2022/08/28 05:22:31;;;;;;;4.55;3.45;;;14.70;21.20;;;;;;5107138;27;34420;-74
2022/08/28 05:24:59;;;;;;;4.25;3.20;;;14.70;21.20;;;;;;5125090;27;34351;-74
2022/08/28 05:27:27;;;;;;;3.08;2.78;;;14.70;21.30;;;;;;5127515;27;34181;-75
2022/08/28 05:29:52;;;;;;;4.22;2.90;;;14.70;21.20;;;;;;5127366;27;34000;-74
2022/08/28 05:32:19;;;;;;;4.28;3.15;;;14.70;21.20;;;;;;5127672;27;34096;-74
2022/08/28 05:34:45;;;;;;;4.03;3.10;;;14.70;21.20;;;;;;5127247;27;35869;-75
2022/08/28 05:37:12;;;;;;;6.10;3.50;;;14.80;21.30;;;;;;5145712;27;34228;-75
2022/08/28 05:39:38;;;;;;;4.03;3.28;;;14.80;21.30;;;;;;5127322;27;34630;-75
2022/08/28 05:42:04;;;;;;;5.18;3.05;;;14.80;21.20;;;;;;5127603;27;34487;-74
2022/08/28 05:44:30;;;;;;;5.18;3.13;;;14.90;21.20;;;;;;5141854;27;35360;-74
2022/08/28 05:46:56;;;;;;;5.32;3.45;;;15.00;21.20;;;;;;5102664;27;34349;-74
2022/08/28 05:49:22;;;;;;;7.43;3.22;;;15.00;21.10;;;;;;5124619;27;34439;-75
2022/08/28 05:51:49;;;;;;;3.67;3.28;;;15.10;21.10;;;;;;5107051;27;34218;-75
2022/08/28 05:54:15;;;;;;;5.05;3.03;;;15.10;20.80;;;;;;5104156;27;36364;-74
2022/08/28 05:56:44;;;;;;;5.15;3.38;;;15.10;21.00;;;;;;5099812;27;34179;-75
2022/08/28 05:59:11;;;;;;;6.03;3.03;;;15.10;21.20;;;;;;5122929;27;34008;-74
2022/08/28 06:01:41;;;;;;;3.58;3.28;;;15.20;21.00;;;;;;5082154;27;34084;-74
2022/08/28 06:04:11;;;;;;;3.28;2.90;;;15.20;21.10;;;;;;5105733;27;35529;-75
2022/08/28 06:06:39;;;;;;;8.63;3.47;;;15.20;21.30;;;;;;5106246;27;34403;-75
2022/08/28 06:09:09;;;;;;;4.25;3.63;;;15.30;21.30;;;;;;5124374;27;34027;-75
2022/08/28 06:11:35;;;;;;;4.32;3.28;;;15.30;21.50;;;;;;5116675;27;34114;-75
2022/08/28 06:14:05;;;;;;;6.03;3.17;;;15.40;21.10;;;;;;5106475;27;34381;-74
2022/08/28 06:16:31;;;;;;;5.22;3.95;;;15.60;21.10;;;;;;5106160;27;34284;-75
2022/08/28 06:18:59;;;;;;;4.20;3.60;;;16.00;20.60;;;;;;5106174;27;34131;-75
2022/08/28 06:21:25;;;;;;;4.80;3.20;;;16.40;20.00;;;;;;5106135;27;34645;-75
2022/08/28 06:23:51;;;;;;;4.35;3.25;;;16.70;19.50;;;;;;5105746;27;36783;-75
2022/08/28 06:26:17;;;;;;;3.28;2.95;;;16.90;19.20;;;;;;5105445;27;34292;-75
2022/08/28 06:28:43;;;;;;;4.28;3.08;;;17.30;18.70;;;;;;5088994;27;34088;-75
2022/08/28 06:31:09;;;;;;;3.80;3.10;;;17.80;18.40;;;;;;5106396;27;35118;-75
2022/08/28 06:33:35;;;;;;;5.38;3.30;;;18.20;17.60;;;;;;5124073;27;34189;-75
2022/08/28 06:36:03;;;;;;;5.03;3.33;;;18.60;17.60;;;;;;5124143;27;34219;-75
2022/08/28 06:38:30;;;;;;;3.75;3.30;;;19.00;17.00;;;;;;5088912;27;34282;-75
2022/08/28 06:40:56;;;;;;;6.05;3.17;;;19.00;16.90;;;;;;5106709;27;34077;-75
2022/08/28 06:43:27;;;;;;;3.50;2.85;;;19.00;17.10;;;;;;5106116;27;35681;-74
2022/08/28 06:45:55;;;;;;;5.65;3.42;;;19.10;16.70;;;;;;5090103;27;34245;-75
2022/08/28 06:48:24;;;;;;;5.25;3.10;;;19.40;16.50;;;;;;5088547;27;34432;-75
2022/08/28 06:50:52;;;;;;;3.65;3.22;;;19.70;16.30;;;;;;5105482;27;34384;-75
2022/08/28 06:53:22;;;;;;;5.45;3.25;;;19.90;15.90;;;;;;5086508;27;36645;-77
2022/08/28 06:56:06;;;;;;;4.50;2.70;;;20.20;15.70;;;;;;5105340;27;34115;-75
2022/08/28 06:58:33;;;;;;;5.45;2.83;;;20.30;15.90;;;;;;5068276;27;34001;-75
2022/08/28 07:01:05;;;;;;;11.38;2.90;;;20.50;15.60;;;;;;5098713;27;34032;-76
2022/08/28 07:03:32;;;;;;;4.03;2.60;;;20.70;15.80;;;;;;5085081;28;35826;-75
2022/08/28 07:05:59;;;;;;;5.38;2.42;;;20.90;15.60;;;;;;5084362;27;34392;-76
2022/08/28 07:08:27;;;;;;;3.50;2.20;;;21.20;15.40;;;;;;5085783;27;34038;-76
2022/08/28 07:10:54;;;;;;;5.15;2.03;;;21.50;15.10;;;;;;5084934;27;34118;-75
2022/08/28 07:13:21;;;;;;;3.90;2.20;;;21.70;14.70;;;;;;5108998;27;36106;-79
2022/08/28 07:15:47;;;;;;;2.85;1.95;;;21.90;14.40;;;;;;5092461;27;34359;-77
2022/08/28 07:18:14;;;;;;;3.63;1.75;;;22.10;14.50;;;;;;5107790;27;34275;-77
2022/08/28 07:20:40;;;;;;;4.88;1.85;;;22.30;14.10;;;;;;5126813;27;34210;-75
2022/08/28 07:23:06;;;;;;;4.15;1.88;;;22.40;13.90;;;;;;5109107;27;36537;-75
2022/08/28 07:25:32;;;;;;;2.03;1.48;;;22.50;13.70;;;;;;5127179;27;34176;-75
2022/08/28 07:27:59;;;;;;;5.30;1.80;;;22.70;13.40;;;;;;5108625;27;34566;-75
2022/08/28 07:30:25;;;;;;;4.53;1.45;;;22.90;13.30;;;;;;5127435;27;34173;-77
2022/08/28 07:32:51;;;;;;;3.63;1.52;;;23.00;13.10;;;;;;5127557;27;35263;-75
2022/08/28 07:35:17;;;;;;;4.38;1.50;;;23.10;12.70;;;;;;5108848;27;34237;-78
2022/08/28 07:37:44;;;;;;;3.58;1.40;;;23.30;12.40;;;;;;5108859;27;34328;-78
2022/08/28 07:40:11;;;;;;;6.25;1.80;;;23.40;12.20;;;;;;5108631;27;34084;-75
2022/08/28 07:45:20;;;;;;;2.75;1.52;;;23.60;11.30;;;;;;5126039;27;34364;-75
2022/08/28 07:47:46;;;;;;;3.47;1.77;;;23.70;11.70;;;;;;5127263;27;34174;-76
2022/08/28 07:50:13;;;;;;;3.70;1.80;;;23.80;11.40;;;;;;5091581;27;34254;-79
2022/08/28 07:52:40;;;;;;;5.45;1.17;;;23.80;11.10;;;;;;5108413;27;35693;-78
2022/08/28 07:55:07;;;;;;;3.85;1.52;;;23.90;11.00;;;;;;5126255;27;34095;-76
2022/08/28 07:57:34;;;;;;;2.83;1.63;;;23.90;10.80;;;;;;5091518;27;34132;-76
2022/08/28 08:00:01;;;;;;;3.70;1.50;;;23.90;10.60;;;;;;5107795;27;34651;-76
2022/08/28 08:02:28;;;;;;;5.10;1.67;;;23.90;10.40;;;;;;5091910;27;35910;-77
2022/08/28 08:04:55;;;;;;;2.83;1.40;;;23.80;10.40;;;;;;5109047;27;34159;-76
2022/08/28 08:07:21;;;;;;;3.35;1.33;;;23.60;10.40;;;;;;5072387;27;34165;-76
2022/08/28 08:09:47;;;;;;;6.65;1.60;;;23.60;10.50;;;;;;5102447;27;34057;-75
2022/08/28 08:12:14;;;;;;;3.60;1.30;;;23.60;10.40;;;;;;5107855;27;36275;-76
2022/08/28 08:14:42;;;;;;;6.15;1.67;;;23.50;10.10;;;;;;5108575;27;34119;-76
2022/08/28 08:17:09;;;;;;;2.70;1.27;;;23.50;10.00;;;;;;5107571;27;34320;-75
2022/08/28 08:19:35;;;;;;;3.45;1.40;;;23.60;10.10;;;;;;5107966;27;34172;-75
2022/08/28 08:22:02;;;;;;;2.92;1.80;;;23.70;10.00;;;;;;5125484;27;34400;-75
2022/08/28 08:24:29;;;;;;;4.88;1.80;;;23.70;10.00;;;;;;5074261;27;34176;-75
2022/08/28 08:26:59;;;;;;;3.70;1.35;;;23.80;9.60;;;;;;5108330;27;34255;-76
2022/08/28 08:29:26;;;;;;;5.18;1.30;;;24.00;8.70;;;;;;5108893;27;34332;-75
2022/08/28 08:31:56;;;;;;;4.40;1.42;;;24.20;9.10;;;;;;5107674;27;35692;-76
2022/08/28 08:34:23;;;;;;;2.88;1.63;;;24.40;8.40;;;;;;5108010;27;34197;-77
2022/08/28 08:36:49;;;;;;;2.70;1.40;;;24.80;8.00;;;;;;5113693;27;34371;-76
2022/08/28 08:39:15;;;;;;;4.82;1.33;;;25.20;7.80;;;;;;5091299;27;34068;-77
2022/08/28 08:41:48;;;;;;;5.55;1.20;;;25.70;7.20;;;;;;5090749;27;35889;-75
2022/08/28 08:44:26;;;;;;;2.38;1.40;;;26.10;5.20;;;;;;5108613;27;34152;-76
2022/08/28 08:47:05;;;;;;;4.50;1.60;;;26.20;3.50;;;;;;5080944;28;34457;-75
2022/08/28 08:49:35;;;;;;;4.15;1.20;;;26.40;3.50;;;;;;5097483;28;34109;-76
2022/08/28 08:52:19;;;;;;;5.13;1.42;;;26.70;4.30;;;;;;5070562;28;35964;-77
2022/08/28 08:55:00;;;;;;;4.03;1.30;;;26.80;1.20;;;;;;5087230;28;34290;-77
2022/08/28 08:57:27;;;;;;;2.80;1.10;;;26.90;2.70;;;;;;5109182;27;34153;-77
2022/08/28 08:59:53;;;;;;;3.95;1.30;;;26.90;4.10;;;;;;5115421;27;34091;-76
2022/08/28 09:02:26;;;;;;;3.58;1.50;;;27.00;4.60;;;;;;5107277;27;36055;-75
2022/08/28 09:05:02;;;;;;;3.22;1.52;;;27.00;4.00;;;;;;5107823;27;34118;-75
2022/08/28 09:07:48;;;;;;;8.38;1.90;;;27.10;2.10;;;;;;5099129;27;34151;-76
2022/08/28 09:10:14;;;;;;;5.82;1.67;;;27.30;1.00;;;;;;5090195;27;34166;-76
2022/08/28 09:12:53;;;;;;;2.33;1.30;;;27.50;4.20;;;;;;5114092;27;34197;-76
2022/08/28 09:15:31;;;;;;;2.53;1.30;;;27.60;1.00;;;;;;5096525;28;34427;-75
2022/08/28 09:18:16;;;;;;;4.10;1.50;;;27.70;1.30;;;;;;5120675;27;34226;-76
2022/08/28 09:20:42;;;;;;;5.30;1.42;;;27.80;1.00;;;;;;5105009;27;34669;-76
2022/08/28 09:23:09;;;;;;;2.55;1.15;;;27.70;3.00;;;;;;5089707;27;36390;-76
2022/08/28 09:25:55;;;;;;;5.90;1.40;;;27.90;2.90;;;;;;5107726;27;34252;-77
2022/08/28 09:28:36;;;;;;;2.97;1.40;;;28.00;1.00;;;;;;5090402;27;34515;-75
2022/08/28 09:31:09;;;;;;;4.25;1.30;;;28.30;1.00;;;;;;5107089;27;34130;-75
2022/08/28 09:33:45;;;;;;;2.78;1.08;;;28.40;1.00;;;;;;5106785;27;35878;-75
2022/08/28 09:36:28;;;;;;;4.07;1.38;;;28.50;1.00;;;;;;5107193;27;34266;-76
2022/08/28 09:39:24;;;;;;;3.90;1.27;;;28.40;1.00;;;;;;5098240;28;34139;-79
2022/08/28 09:44:57;;;;;;;3.28;1.25;;;28.50;1.00;;;;;;5100691;27;34255;-76
2022/08/28 09:47:40;;;;;;;4.30;1.35;;;28.70;1.00;;;;;;5106053;27;34155;-76
2022/08/28 09:50:19;;;;;;;4.97;1.70;;;28.80;1.00;;;;;;5124427;27;34138;-75
2022/08/28 09:52:46;;;;;;;4.50;1.27;;;28.80;1.00;;;;;;5125482;27;34307;-75
2022/08/28 09:55:23;;;;;;;6.40;1.73;;;28.80;1.10;;;;;;5105707;27;35912;-76
2022/08/28 09:57:49;;;;;;;4.28;1.30;;;28.90;1.00;;;;;;5106551;27;34187;-76
2022/08/28 10:00:16;;;;;;;5.80;1.13;;;28.70;1.00;;;;;;5106546;27;34123;-75
2022/08/28 10:02:57;;;;;;;3.10;1.20;;;28.70;1.00;;;;;;5111264;27;34186;-75
2022/08/28 10:05:37;;;;;;;3.60;1.30;;;28.80;1.00;;;;;;5124033;27;35610;-77
2022/08/28 10:08:23;;;;;;;2.08;1.40;;;28.80;1.00;;;;;;5107333;27;34307;-77
2022/08/28 10:10:57;;;;;;;3.28;1.35;;;29.00;1.00;;;;;;5106891;27;34063;-77
2022/08/28 10:13:31;;;;;;;3.83;1.30;;;29.10;1.00;;;;;;5106358;27;34116;-75
2022/08/28 10:16:22;;;;;;;3.55;1.60;;;29.40;1.00;;;;;;5105304;27;35194;-78
2022/08/28 10:19:04;;;;;;;3.10;1.80;;;29.50;1.00;;;;;;5106670;27;34036;-75
2022/08/28 10:21:49;;;;;;;3.67;1.45;;;29.60;1.00;;;;;;5106938;27;34220;-77
2022/08/28 10:24:45;;;;;;;2.55;1.40;;;29.60;1.00;;;;;;5107047;27;34432;-77
2022/08/28 10:27:33;;;;;;;1.63;1.00;;;29.70;1.00;;;;;;5093683;27;35672;-75
2022/08/28 10:30:13;;;;;;;2.88;1.52;;;29.90;1.00;;;;;;5103734;27;34444;-75
2022/08/28 10:33:01;;;;;;;1.80;1.10;;;30.00;1.00;;;;;;5106731;27;34133;-76
2022/08/28 10:35:46;;;;;;;1.63;1.23;;;29.80;1.00;;;;;;5107191;27;34307;-76
2022/08/28 10:38:22;;;;;;;2.28;1.40;;;29.60;1.00;;;;;;5124068;27;35011;-75
2022/08/28 10:41:03;;;;;;;3.30;1.55;;;29.50;1.00;;;;;;5106091;27;34197;-76
2022/08/28 10:43:35;;;;;;;1.50;1.13;;;29.30;1.00;;;;;;5107546;27;34286;-75
2022/08/28 10:46:05;;;;;;;2.38;1.20;;;29.20;1.00;;;;;;5107571;27;34118;-76
2022/08/28 10:48:39;;;;;;;5.35;1.50;;;29.10;1.00;;;;;;5109956;27;35724;-75
2022/08/28 10:51:15;;;;;;;4.22;1.40;;;29.00;1.00;;;;;;5128104;27;34076;-76
2022/08/28 10:53:49;;;;;;;2.50;1.20;;;28.90;1.00;;;;;;5110547;27;34557;-77
2022/08/28 10:56:19;;;;;;;2.30;1.30;;;28.70;1.00;;;;;;5110055;27;34378;-75
2022/08/28 10:58:48;;;;;;;5.95;1.33;;;28.50;1.00;;;;;;5111406;27;34668;-76
2022/08/28 11:01:28;;;;;;;3.70;1.50;;;28.50;1.00;;;;;;5128073;27;35311;-76
2022/08/28 11:03:57;;;;;;;7.45;1.52;;;28.50;1.00;;;;;;5109592;27;34301;-77
2022/08/28 11:06:32;;;;;;;2.70;1.40;;;28.40;1.00;;;;;;5109608;27;34455;-75
2022/08/28 11:09:23;;;;;;;2.22;1.35;;;28.30;1.00;;;;;;5101902;28;36690;-73
2022/08/28 11:11:51;;;;;;;4.93;1.40;;;28.20;1.00;;;;;;5112066;27;34180;-74
2022/08/28 11:14:32;;;;;;;3.97;1.52;;;28.10;1.00;;;;;;5109508;27;34413;-74
2022/08/28 11:17:10;;;;;;;3.20;1.48;;;27.90;1.00;;;;;;5124530;27;34288;-75
2022/08/28 11:19:49;;;;;;;6.53;1.85;;;27.80;1.00;;;;;;5108916;27;36794;-75
2022/08/28 11:22:23;;;;;;;3.97;1.60;;;27.80;1.00;;;;;;5109012;27;34439;-75
2022/08/28 11:24:59;;;;;;;2.70;1.50;;;27.80;1.00;;;;;;5110486;27;34310;-76
2022/08/28 11:27:32;;;;;;;2.33;1.48;;;27.80;1.00;;;;;;5127854;27;34426;-75
2022/08/28 11:30:25;;;;;;;2.30;1.50;;;27.70;1.00;;;;;;5108707;27;35556;-75
2022/08/28 11:32:58;;;;;;;1.17;1.05;;;27.80;1.00;;;;;;5095201;27;34089;-76
2022/08/28 11:35:41;;;;;;;3.05;1.30;;;27.80;1.00;;;;;;5108418;27;34570;-75
2022/08/28 11:38:09;;;;;;;2.85;1.38;;;27.90;1.00;;;;;;5108558;27;34306;-76
2022/08/28 11:40:54;;;;;;;5.18;1.40;;;27.90;1.00;;;;;;5088854;28;37008;-76
2022/08/28 11:43:37;;;;;;;5.90;1.48;;;28.00;1.00;;;;;;5126016;27;34138;-75
2022/08/28 11:46:11;;;;;;;4.65;1.30;;;28.10;1.00;;;;;;5075407;28;34312;-78
2022/08/28 11:48:50;;;;;;;8.05;1.42;;;28.20;1.00;;;;;;5098430;28;34543;-75
2022/08/28 11:51:36;;;;;;;5.70;1.65;;;28.40;1.00;;;;;;5125811;27;34408;-77
2022/08/28 11:54:33;;;;;;;3.47;1.50;;;28.50;1.00;;;;;;5108775;27;34091;-76
2022/08/28 11:57:10;;;;;;;5.60;1.30;;;28.60;1.00;;;;;;5110546;27;34258;-75
2022/08/28 11:59:51;;;;;;;1.70;1.25;;;28.60;1.00;;;;;;5092848;27;34218;-74
2022/08/28 12:02:50;;;;;;;1.92;1.25;;;28.70;1.00;;;;;;5097524;27;35709;-75
2022/08/28 12:05:38;;;;;;;5.53;1.60;;;28.70;1.00;;;;;;5082412;27;34456;-75
2022/08/28 12:08:04;;;;;;;5.28;1.20;;;28.80;1.00;;;;;;5112231;27;34236;-78
2022/08/28 12:10:52;;;;;;;2.97;1.23;;;28.90;1.00;;;;;;5108048;27;34086;-74
2022/08/28 12:13:49;;;;;;;4.10;1.65;;;29.00;1.00;;;;;;5093868;27;35200;-75
2022/08/28 12:16:15;;;;;;;3.33;1.70;;;28.90;1.00;;;;;;5113561;27;34335;-77
2022/08/28 12:18:58;;;;;;;3.25;1.50;;;28.90;1.00;;;;;;5126708;27;34405;-74
2022/08/28 12:21:26;;;;;;;2.40;1.60;;;28.90;1.00;;;;;;5108874;27;34192;-76
2022/08/28 12:24:00;;;;;;;1.60;1.50;;;29.10;1.00;;;;;;5109041;27;35317;-75
2022/08/28 12:26:36;;;;;;;3.13;1.60;;;29.40;1.00;;;;;;5107986;27;34595;-74
2022/08/28 12:29:19;;;;;;;2.50;1.30;;;29.70;1.00;;;;;;5091903;27;34356;-74
2022/08/28 12:32:13;;;;;;;3.40;1.70;;;29.70;1.00;;;;;;5126909;27;34250;-74
2022/08/28 12:35:03;;;;;;;1.83;1.45;;;29.90;1.00;;;;;;5108101;27;35954;-76
2022/08/28 12:37:58;;;;;;;6.45;1.50;;;30.10;1.00;;;;;;5094212;27;34172;-76
2022/08/28 12:40:29;;;;;;;2.80;1.40;;;30.30;1.00;;;;;;5118066;27;34411;-79
2022/08/28 12:43:01;;;;;;;2.60;1.60;;;30.40;1.00;;;;;;5108839;27;34140;-76
2022/08/28 12:45:38;;;;;;;2.67;1.20;;;30.30;1.00;;;;;;5126154;27;34066;-74
2022/08/28 12:48:17;;;;;;;2.35;1.40;;;30.10;1.00;;;;;;5108343;27;34190;-75
2022/08/28 12:50:45;;;;;;;5.88;1.55;;;29.90;1.00;;;;;;5126871;27;34325;-75
2022/08/28 12:53:17;;;;;;;2.67;1.38;;;29.70;1.00;;;;;;5126433;27;34051;-75
2022/08/28 12:55:53;;;;;;;2.97;1.30;;;29.70;1.00;;;;;;5091732;27;36040;-75
2022/08/28 12:58:41;;;;;;;3.10;1.65;;;29.60;1.00;;;;;;5106758;27;34122;-75
2022/08/28 13:01:13;;;;;;;2.08;1.30;;;29.50;1.00;;;;;;5107029;27;34184;-76
2022/08/28 13:03:53;;;;;;;3.30;1.70;;;29.50;1.00;;;;;;5072253;27;34025;-75
2022/08/28 13:06:25;;;;;;;3.20;1.50;;;29.50;1.00;;;;;;5106913;27;35615;-75
2022/08/28 13:09:02;;;;;;;1.90;1.55;;;29.30;1.00;;;;;;5073215;27;34364;-74
2022/08/28 13:11:37;;;;;;;2.90;1.73;;;29.20;1.00;;;;;;5107353;27;34175;-74
2022/08/28 13:14:07;;;;;;;3.83;1.40;;;29.10;1.00;;;;;;5099001;28;34297;-76
2022/08/28 13:16:45;;;;;;;3.58;1.40;;;29.20;1.00;;;;;;5087052;28;36638;-76
2022/08/28 13:19:31;;;;;;;2.05;1.10;;;29.50;1.00;;;;;;5086736;28;34153;-74
2022/08/28 13:22:07;;;;;;;2.60;1.30;;;29.60;1.00;;;;;;5072192;28;34112;-75
2022/08/28 13:24:44;;;;;;;3.33;1.38;;;29.80;1.00;;;;;;5100165;27;34127;-77